Estación Meteorológica Peña el Pijo (Robertgarden) [ 07/23/19 14:17:29 CEST ]

Fecha Hora Presion(HPa) Temp (°C) Humedad % Rocio (°C) Viento ( m/s) Direccion Lluvia 1Hora(mm) Lluvia 24H(mm) LLuvia Total(mm)
2019-Jan-26 01:01:54 1008.200 2.3 81 -0.6         167.31
2019-Jan-26 02:01:42 1007.800 1.4 81 -1.5         167.31
2019-Jan-26 03:03:43 1007.900 1.3 82 -1.5         167.31
2019-Jan-26 04:01:38 1008.000 2.9 81 -0.0         167.31
2019-Jan-26 05:01:41 1007.600 2.8 79 -0.5         167.31
2019-Jan-26 06:01:39 1007.800 2.6 76 -1.2         167.31
2019-Jan-26 07:01:56 1008.200 -0.1 78 -3.5         167.31
2019-Jan-26 08:01:52 1008.300 -0.4 80 -3.4         167.31
2019-Jan-26 09:01:53 1008.500 -0.7 81 -3.5         167.31
2019-Jan-26 10:01:47 1008.700 5.4 80 2.2         167.31
2019-Jan-26 11:02:02 1008.700 12.9 55 4.0         167.31
2019-Jan-26 12:01:47 1008.700 17.1 38 2.6         167.31
2019-Jan-26 13:01:48 1008.000 19.3 27 -0.3         167.31
2019-Jan-26 14:01:41 1007.200 19.9 25 -0.9         167.31
2019-Jan-26 15:01:55 1006.500 21.1 24 -0.5         167.31
2019-Jan-26 16:02:05 1006.600 20.9 22 -1.8 3.0 NNE     167.31
2019-Jan-26 17:01:38 1006.600 18.6 24 -2.6 0.5 WNW     167.31
2019-Jan-26 18:01:45 1006.800 14.8 29 -3.1         167.31
2019-Jan-26 19:02:09 1006.700 9.1 39 -4.2         167.31
2019-Jan-26 20:01:49 1007.200 6.9 44 -4.6         167.31
2019-Jan-26 21:01:59 1007.100 3.9 50 -5.6         167.31
2019-Jan-26 22:01:59 1006.800 3.3 53 -5.4         167.31
2019-Jan-26 23:01:40 1006.600 5.3 44 -6.1         167.31

Temperatura Máxima:21°    Temperatura Mínima:
Presión Máxima:1008.700 Hpa    Presión Mínima:1006.500 Hpa


Volver